Time;durP1;ratioP1;P1;durP2;ratioP2;P2;SDS_P1;SDS_P2;PMS_P1;PMS_P2;Temp;Humidity;BMP_temperature;BMP_pressure;BME280_temperature;BME280_humidity;BME280_pressure;Samples;Min_cycle;Max_cycle;Signal;HPM_P1;HPM_P2
2022/12/05 00:01:16;;;;;;;32.17;12.50;;;;;;;-145.69;100.00;52775.13;5099136;28;20201;-80
2022/12/05 00:03:43;;;;;;;29.60;11.63;;;;;;;-145.69;100.00;52747.41;5099661;28;20198;-81
2022/12/05 00:06:10;;;;;;;32.57;12.67;;;;;;;-145.69;100.00;52747.41;5099438;28;20197;-81
2022/12/05 00:08:38;;;;;;;27.90;10.77;;;;;;;-145.69;100.00;52723.63;5099379;28;20194;-80
2022/12/05 00:11:10;;;;;;;30.40;11.47;;;;;;;-145.69;100.00;52735.50;5099746;28;20202;-81
2022/12/05 00:13:38;;;;;;;33.60;12.03;;;;;;;-145.69;100.00;52769.19;5099610;28;20208;-81
2022/12/05 00:16:07;;;;;;;26.83;11.23;;;;;;;-145.69;100.00;52743.44;5099570;28;20274;-81
2022/12/05 00:18:34;;;;;;;33.93;11.47;;;;;;;-145.69;100.00;52747.41;5099419;28;20199;-81
2022/12/05 00:21:00;;;;;;;33.00;11.77;;;;;;;-145.69;100.00;52751.34;5099291;28;20198;-81
2022/12/05 00:23:27;;;;;;;28.70;10.70;;;;;;;-145.69;100.00;52757.31;5099535;28;20202;-80
2022/12/05 00:25:55;;;;;;;32.13;11.43;;;;;;;-145.69;100.00;52765.22;5099309;28;20560;-81
2022/12/05 00:28:21;;;;;;;32.27;11.30;;;;;;;-145.69;100.00;52731.56;5099501;28;20202;-81
2022/12/05 00:30:48;;;;;;;32.87;12.27;;;;;;;-145.69;100.00;52765.22;5099138;28;20194;-81
2022/12/05 00:33:14;;;;;;;32.53;11.83;;;;;;;-145.69;100.00;52759.28;5087148;28;20215;-81
2022/12/05 00:35:41;;;;;;;28.80;10.80;;;;;;;-145.69;100.00;52739.47;5078881;28;20231;-81
2022/12/05 00:38:07;;;;;;;34.70;11.70;;;;;;;-145.69;100.00;52769.19;5090505;28;20643;-82
2022/12/05 00:40:35;;;;;;;33.67;11.83;;;;;;;-145.69;100.00;52755.31;5099558;28;20225;-82
2022/12/05 00:43:03;;;;;;;34.37;12.27;;;;;;;-145.69;100.00;52755.31;5099496;28;20201;-82
2022/12/05 00:45:30;;;;;;;36.33;12.80;;;;;;;-145.69;100.00;52717.69;5099122;28;20293;-81
2022/12/05 00:47:56;;;;;;;34.10;12.57;;;;;;;-145.69;100.00;52763.25;5099311;28;20545;-82
2022/12/05 00:50:23;;;;;;;34.03;12.27;;;;;;;-145.69;100.00;52757.31;5098672;28;20198;-82
2022/12/05 00:52:49;;;;;;;33.67;12.20;;;;;;;-145.69;100.00;52749.38;5099460;28;20233;-82
2022/12/05 00:55:16;;;;;;;34.97;13.00;;;;;;;-145.69;100.00;52757.31;5099503;28;20206;-82
2022/12/05 00:57:42;;;;;;;37.87;12.27;;;;;;;-145.69;100.00;52757.31;5095292;28;20534;-82
2022/12/05 01:00:11;;;;;;;36.17;12.37;;;;;;;-145.69;100.00;52741.47;5094239;28;20253;-82
2022/12/05 01:02:38;;;;;;;34.00;11.77;;;;;;;-145.69;100.00;52747.41;5096434;28;20201;-82
2022/12/05 01:05:05;;;;;;;32.07;10.47;;;;;;;-145.69;100.00;52777.09;5096382;28;20225;-82
2022/12/05 01:07:32;;;;;;;28.30;10.23;;;;;;;-145.69;100.00;52745.41;5095994;28;20195;-82
2022/12/05 01:09:58;;;;;;;26.33;9.93;;;;;;;-145.69;100.00;52769.19;5095734;28;20201;-82
2022/12/05 01:12:26;;;;;;;30.37;10.73;;;;;;;-145.69;100.00;52761.25;5096289;28;20288;-82
2022/12/05 01:14:53;;;;;;;27.77;10.07;;;;;;;-145.69;100.00;52779.09;5096115;28;20202;-81
2022/12/05 01:17:21;;;;;;;31.00;10.70;;;;;;;-145.69;100.00;52761.25;5095301;28;20194;-82
2022/12/05 01:19:47;;;;;;;23.43;10.20;;;;;;;-145.69;100.00;52743.44;5095501;28;20225;-82
2022/12/05 01:22:14;;;;;;;28.63;10.77;;;;;;;-145.69;100.00;52777.09;5095550;28;20291;-82
2022/12/05 01:24:40;;;;;;;29.33;10.43;;;;;;;-145.69;100.00;52769.19;5095350;28;20205;-82
2022/12/05 01:27:07;;;;;;;35.27;12.90;;;;;;;-145.69;100.00;52787.00;5094874;28;20432;-81
2022/12/05 01:29:34;;;;;;;29.90;10.87;;;;;;;-145.69;100.00;52773.16;5095331;28;20531;-82
2022/12/05 01:32:00;;;;;;;27.00;9.97;;;;;;;-145.69;100.00;52751.34;5095650;28;20199;-82
2022/12/05 01:34:30;;;;;;;28.37;10.83;;;;;;;-145.69;100.00;52751.34;5095497;28;20222;-82
2022/12/05 01:36:57;;;;;;;32.73;10.70;;;;;;;-145.69;100.00;52773.16;5095617;28;20235;-83
2022/12/05 01:39:23;;;;;;;31.40;10.43;;;;;;;-145.69;100.00;52802.84;5095490;28;20225;-82
2022/12/05 01:41:50;;;;;;;30.00;10.13;;;;;;;-145.69;100.00;52765.22;5094918;28;20208;-82
2022/12/05 01:44:54;;;;;;;32.97;11.10;;;;;;;-145.69;100.00;52745.41;5095512;28;20239;-83
2022/12/05 01:47:23;;;;;;;31.97;11.53;;;;;;;-145.69;100.00;52767.19;5095320;28;20227;-83
2022/12/05 01:49:51;;;;;;;26.83;9.47;;;;;;;-145.69;100.00;52777.09;5095581;28;20200;-83
2022/12/05 01:52:22;;;;;;;28.97;11.20;;;;;;;-145.69;100.00;52765.22;5095637;28;20288;-82
2022/12/05 01:54:51;;;;;;;28.63;10.70;;;;;;;-145.69;100.00;52790.97;5095270;28;20198;-81
2022/12/05 01:57:18;;;;;;;30.07;10.37;;;;;;;-145.69;100.00;52753.34;5095134;28;20198;-81
2022/12/05 01:59:49;;;;;;;27.87;9.73;;;;;;;-145.69;100.00;52767.19;5094901;28;20233;-82
2022/12/05 02:02:16;;;;;;;23.33;9.13;;;;;;;-145.69;100.00;52794.94;5095028;28;20221;-82
2022/12/05 02:04:50;;;;;;;24.40;9.47;;;;;;;-145.69;100.00;52737.50;5094145;28;20202;-81
2022/12/05 02:07:19;;;;;;;20.20;8.30;;;;;;;-145.69;100.00;52745.41;5094607;28;20228;-82
2022/12/05 02:09:49;;;;;;;19.37;7.23;;;;;;;-145.69;100.00;52757.31;5095008;28;20205;-82
2022/12/05 02:12:15;;;;;;;18.70;7.73;;;;;;;-145.69;100.00;52773.16;5094919;28;20202;-82
2022/12/05 02:14:53;;;;;;;17.57;7.33;;;;;;;-145.69;100.00;52765.22;5095097;28;20285;-82
2022/12/05 02:17:28;;;;;;;17.30;6.97;;;;;;;-145.69;100.00;52731.56;5094763;28;20205;-81
2022/12/05 02:20:16;;;;;;;16.97;6.80;;;;;;;-145.69;100.00;52781.06;5095286;28;20228;-82
2022/12/05 02:23:17;;;;;;;18.50;7.17;;;;;;;-145.69;100.00;52781.06;5095458;28;20208;-82
2022/12/05 02:26:19;;;;;;;18.13;7.60;;;;;;;-145.69;100.00;52741.47;5093604;28;20208;-82
2022/12/05 02:29:13;;;;;;;17.07;6.90;;;;;;;-145.69;100.00;52787.00;5094649;28;20198;-81
2022/12/05 02:31:51;;;;;;;12.97;5.47;;;;;;;-145.69;100.00;52777.09;5094184;28;20676;-80
2022/12/05 02:34:25;;;;;;;12.80;6.13;;;;;;;-145.69;100.00;52745.41;5094137;28;20234;-80
2022/12/05 02:36:59;;;;;;;15.57;6.37;;;;;;;-145.69;100.00;52785.03;5090022;28;20203;-81
2022/12/05 02:39:36;;;;;;;16.27;6.77;;;;;;;-145.69;100.00;52733.53;5073833;28;20199;-81
2022/12/05 02:42:09;;;;;;;14.23;5.30;;;;;;;-145.69;100.00;52773.16;5073976;28;20207;-81
2022/12/05 02:44:41;;;;;;;15.27;6.30;;;;;;;-145.69;100.00;52759.28;5073814;28;20248;-80
2022/12/05 02:47:11;;;;;;;11.77;5.33;;;;;;;-145.69;100.00;52759.28;5076571;28;20205;-81
2022/12/05 02:49:41;;;;;;;11.67;5.20;;;;;;;-145.69;100.00;52741.47;5094067;28;20205;-80
2022/12/05 02:52:12;;;;;;;11.70;5.03;;;;;;;-145.69;100.00;52755.31;5093824;28;20202;-81
2022/12/05 02:54:42;;;;;;;13.20;4.83;;;;;;;-145.69;100.00;52761.25;5093798;28;20209;-81
2022/12/05 02:57:12;;;;;;;12.07;4.97;;;;;;;-145.69;100.00;52759.28;5094376;28;20198;-81
2022/12/05 02:59:38;;;;;;;10.37;5.17;;;;;;;-145.69;100.00;52777.09;5093724;28;20218;-81
2022/12/05 03:02:05;;;;;;;12.07;5.33;;;;;;;-145.69;100.00;52741.47;5093863;28;20553;-81
2022/12/05 03:04:33;;;;;;;14.17;5.43;;;;;;;-145.69;100.00;52769.19;5093767;28;20224;-81
2022/12/05 03:07:03;;;;;;;15.57;5.83;;;;;;;-145.69;100.00;52743.44;5093351;28;20672;-82
2022/12/05 03:09:35;;;;;;;15.30;5.80;;;;;;;-145.69;100.00;52785.03;5094202;28;20209;-82
2022/12/05 03:12:08;;;;;;;13.20;6.27;;;;;;;-145.69;100.00;52757.31;5094230;28;20206;-82
2022/12/05 03:14:40;;;;;;;15.83;5.90;;;;;;;-145.69;100.00;52767.19;5094004;28;20276;-82
2022/12/05 03:17:10;;;;;;;11.73;5.60;;;;;;;-145.69;100.00;52777.09;5093812;28;20205;-82
2022/12/05 03:19:48;;;;;;;18.27;6.03;;;;;;;-145.69;100.00;52794.94;5094029;28;20202;-82
2022/12/05 03:22:22;;;;;;;13.77;5.83;;;;;;;-145.69;100.00;52775.13;5094402;28;20198;-81
2022/12/05 03:24:49;;;;;;;14.70;5.47;;;;;;;-145.69;100.00;52757.31;5093482;28;20209;-82
2022/12/05 03:27:22;;;;;;;13.10;6.13;;;;;;;-145.69;100.00;52761.25;5093982;28;20283;-81
2022/12/05 03:29:53;;;;;;;12.10;5.63;;;;;;;-145.69;100.00;52747.41;5094092;28;20221;-82
2022/12/05 03:32:25;;;;;;;13.10;5.43;;;;;;;-145.69;100.00;52773.16;5093522;28;20198;-82
2022/12/05 03:35:01;;;;;;;13.50;5.83;;;;;;;-145.69;100.00;52810.78;5093655;28;20234;-82
2022/12/05 03:37:35;;;;;;;10.53;4.77;;;;;;;-145.69;100.00;52789.00;5093543;28;20185;-83
2022/12/05 03:40:09;;;;;;;11.10;5.07;;;;;;;-145.69;100.00;52785.03;5093564;28;20233;-82
2022/12/05 03:42:41;;;;;;;13.20;5.60;;;;;;;-145.69;100.00;52765.22;5093915;28;20656;-82
2022/12/05 03:45:11;;;;;;;16.80;5.63;;;;;;;-145.69;100.00;52737.50;5093932;28;20202;-82
2022/12/05 03:47:48;;;;;;;13.63;5.70;;;;;;;-145.69;100.00;52733.53;5093915;28;21011;-82
2022/12/05 03:50:22;;;;;;;12.53;6.00;;;;;;;-145.69;100.00;52751.34;5094147;28;20197;-83
2022/12/05 03:52:54;;;;;;;15.07;5.10;;;;;;;-145.69;100.00;52787.00;5093859;28;20194;-83
2022/12/05 03:55:24;;;;;;;13.97;4.83;;;;;;;-145.69;100.00;52753.34;5094097;28;20213;-82
2022/12/05 03:57:57;;;;;;;12.87;4.63;;;;;;;-145.69;100.00;52792.94;5093428;28;20684;-83
2022/12/05 04:00:24;;;;;;;11.40;4.23;;;;;;;-145.69;100.00;52781.06;5093108;28;20222;-83
2022/12/05 04:02:55;;;;;;;16.77;5.97;;;;;;;-145.69;100.00;52773.16;5093312;28;20299;-83
2022/12/05 04:05:27;;;;;;;14.53;5.83;;;;;;;-145.69;100.00;52757.31;5093220;28;20256;-83
2022/12/05 04:08:00;;;;;;;14.47;5.43;;;;;;;-145.69;100.00;52745.41;5093229;28;20550;-83
2022/12/05 04:10:31;;;;;;;17.00;5.93;;;;;;;-145.69;100.00;52765.22;5093378;28;20198;-83
2022/12/05 04:13:16;;;;;;;14.57;5.00;;;;;;;-145.69;100.00;52755.31;5093042;28;20668;-83
2022/12/05 04:18:34;;;;;;;12.67;5.37;;;;;;;-145.69;100.00;52779.09;5092527;28;20205;-82
2022/12/05 04:25:31;;;;;;;15.33;5.43;;;;;;;-145.69;100.00;52783.06;5093299;28;20205;-83
2022/12/05 04:26:37;;;;;;;16.17;5.90;;;;;;;-145.69;100.00;52781.06;5092943;28;20233;-82
2022/12/05 04:29:10;;;;;;;13.43;5.57;;;;;;;-145.69;100.00;52749.38;5092860;28;20628;-83
2022/12/05 04:31:42;;;;;;;14.50;6.27;;;;;;;-145.69;100.00;52767.19;5093038;28;20198;-83
2022/12/05 04:34:13;;;;;;;15.33;5.60;;;;;;;-145.69;100.00;52763.25;5092857;28;20294;-82
2022/12/05 04:36:45;;;;;;;12.47;5.50;;;;;;;-145.69;100.00;52796.91;5095279;28;20205;-82
2022/12/05 04:39:17;;;;;;;15.87;6.83;;;;;;;-145.69;100.00;52777.09;5094522;28;20198;-83
2022/12/05 04:41:49;;;;;;;19.53;5.87;;;;;;;-145.69;100.00;52771.16;5076317;28;20227;-82
2022/12/05 04:44:20;;;;;;;18.20;6.37;;;;;;;-145.69;100.00;52753.34;5076679;28;20194;-83
2022/12/05 04:46:49;;;;;;;18.17;6.37;;;;;;;-145.69;100.00;52777.09;5076477;28;20203;-83
2022/12/05 04:49:21;;;;;;;19.53;6.53;;;;;;;-145.69;100.00;52785.03;5076275;28;20203;-82
2022/12/05 04:51:52;;;;;;;13.73;6.17;;;;;;;-145.69;100.00;52792.94;5076552;28;20199;-82
2022/12/05 04:54:22;;;;;;;14.97;6.57;;;;;;;-145.69;100.00;52769.19;5076999;28;20202;-83
2022/12/05 04:56:54;;;;;;;24.35;9.20;;;;;;;-145.69;100.00;52753.34;5077569;28;20521;-82
2022/12/05 04:59:21;;;;;;;17.73;6.70;;;;;;;-145.69;100.00;52747.41;5097009;28;20206;-83
2022/12/05 05:01:53;;;;;;;18.43;6.73;;;;;;;-145.69;100.00;52781.06;5096045;28;20260;-82
2022/12/05 05:04:25;;;;;;;15.63;6.27;;;;;;;-145.69;100.00;52743.44;5096494;28;20194;-81
2022/12/05 05:06:53;;;;;;;17.30;5.60;;;;;;;-145.69;100.00;52769.19;5096475;28;20202;-83
2022/12/05 05:09:19;;;;;;;14.60;5.90;;;;;;;-145.69;100.00;52781.06;5096387;28;20208;-82
2022/12/05 05:11:46;;;;;;;14.53;5.47;;;;;;;-145.69;100.00;52783.06;5095445;28;20194;-82
2022/12/05 05:14:13;;;;;;;13.73;5.67;;;;;;;-145.69;100.00;52741.47;5096091;28;20209;-83
2022/12/05 05:16:41;;;;;;;17.30;5.80;;;;;;;-145.69;100.00;52773.16;5095869;28;20202;-83
2022/12/05 05:19:10;;;;;;;16.77;6.40;;;;;;;-145.69;100.00;52783.06;5096445;28;20198;-82
2022/12/05 05:21:39;;;;;;;16.73;5.97;;;;;;;-145.69;100.00;52787.00;5096515;28;20222;-82
2022/12/05 05:24:09;;;;;;;18.10;6.20;;;;;;;-145.69;100.00;52783.06;5096928;28;20289;-83
2022/12/05 05:26:37;;;;;;;14.00;4.93;;;;;;;-145.69;100.00;52792.94;5096790;28;20198;-83
2022/12/05 05:29:04;;;;;;;15.87;6.87;;;;;;;-145.69;100.00;52777.09;5095727;28;20202;-83
2022/12/05 05:31:31;;;;;;;13.90;6.23;;;;;;;-145.69;100.00;52745.41;5095255;28;20202;-82
2022/12/05 05:33:58;;;;;;;10.60;5.10;;;;;;;-145.69;100.00;52761.25;5096658;28;20194;-83
2022/12/05 05:36:27;;;;;;;13.67;5.60;;;;;;;-145.69;100.00;52737.50;5096317;28;20198;-83
2022/12/05 05:38:56;;;;;;;13.13;5.87;;;;;;;-145.69;100.00;52773.16;5097641;28;20189;-83
2022/12/05 05:41:26;;;;;;;12.63;5.27;;;;;;;-145.69;100.00;52753.34;5096513;28;20226;-83
2022/12/05 05:43:54;;;;;;;14.33;5.17;;;;;;;-145.69;100.00;52769.19;5094298;28;20201;-82
2022/12/05 05:46:23;;;;;;;11.73;5.73;;;;;;;-145.69;100.00;52763.25;5097024;28;20198;-83
2022/12/05 05:48:50;;;;;;;16.23;6.33;;;;;;;-145.69;100.00;52751.34;5097649;28;20208;-82
2022/12/05 05:51:18;;;;;;;15.35;8.27;;;;;;;-145.69;100.00;52759.28;5095684;28;20466;-82
2022/12/05 05:53:45;;;;;;;16.37;7.10;;;;;;;-145.69;100.00;52765.22;5096673;28;20202;-81
2022/12/05 05:56:14;;;;;;;13.57;6.30;;;;;;;-145.69;100.00;52751.34;5096639;28;20206;-81
2022/12/05 05:58:43;;;;;;;15.23;6.63;;;;;;;-145.69;100.00;52816.72;5096726;28;20206;-82
2022/12/05 06:01:11;;;;;;;13.07;5.83;;;;;;;-145.69;100.00;52777.09;5095937;28;20797;-81
2022/12/05 06:03:38;;;;;;;14.03;6.10;;;;;;;-145.69;100.00;52767.19;5096267;28;20202;-82
2022/12/05 06:06:07;;;;;;;15.20;6.37;;;;;;;-145.69;100.00;52757.31;5095865;28;20202;-82
2022/12/05 06:08:37;;;;;;;14.77;6.40;;;;;;;-145.69;100.00;52814.75;5095659;28;20196;-82
2022/12/05 06:11:05;;;;;;;14.67;5.97;;;;;;;-145.69;100.00;52749.38;5095889;28;20219;-83
2022/12/05 06:13:32;;;;;;;12.83;6.00;;;;;;;-145.69;100.00;52753.34;5095612;28;20671;-83
2022/12/05 06:15:59;;;;;;;15.57;6.23;;;;;;;-145.69;100.00;52765.22;5095350;28;20199;-82
2022/12/05 06:18:26;;;;;;;20.17;7.10;;;;;;;-145.69;100.00;52727.59;5095724;28;20198;-82
2022/12/05 06:20:53;;;;;;;15.40;6.50;;;;;;;-145.69;100.00;52747.41;5095340;28;20317;-81
2022/12/05 06:23:20;;;;;;;14.83;6.37;;;;;;;-145.69;100.00;52751.34;5095086;28;20198;-82
2022/12/05 06:25:48;;;;;;;16.60;7.13;;;;;;;-145.69;100.00;52781.06;5095315;28;20794;-82
2022/12/05 06:28:15;;;;;;;13.57;6.17;;;;;;;-145.69;100.00;52733.53;5095318;28;20202;-82
2022/12/05 06:30:41;;;;;;;15.87;7.17;;;;;;;-145.69;100.00;52749.38;5095308;28;20205;-82
2022/12/05 06:33:09;;;;;;;12.87;6.27;;;;;;;-145.69;100.00;52733.53;5094845;28;20556;-82
2022/12/05 06:35:36;;;;;;;15.70;7.00;;;;;;;-145.69;100.00;52773.16;5077897;28;20232;-82
2022/12/05 06:38:03;;;;;;;14.70;6.57;;;;;;;-145.69;100.00;52749.38;5078428;28;20202;-83
2022/12/05 06:40:29;;;;;;;12.83;6.50;;;;;;;-145.69;100.00;52765.22;5095313;28;20289;-82
2022/12/05 06:42:56;;;;;;;15.53;7.03;;;;;;;-145.69;100.00;52751.34;5095038;28;20653;-82
2022/12/05 06:45:22;;;;;;;14.83;6.20;;;;;;;-145.69;100.00;52733.53;5094697;28;20205;-81
2022/12/05 06:47:50;;;;;;;17.77;7.70;;;;;;;-145.69;100.00;52785.03;5094888;28;20674;-82
2022/12/05 06:50:18;;;;;;;14.23;7.23;;;;;;;-145.69;100.00;52783.06;5094859;28;20657;-81
2022/12/05 06:52:45;;;;;;;17.33;7.20;;;;;;;-145.69;100.00;52743.44;5094428;28;20202;-82
2022/12/05 06:55:12;;;;;;;18.53;6.90;;;;;;;-145.69;100.00;52802.84;5094481;28;20627;-81
2022/12/05 06:57:38;;;;;;;20.53;7.73;;;;;;;-145.69;100.00;52725.63;5094453;28;20202;-83
2022/12/05 07:02:51;;;;;;;13.37;6.20;;;;;;;-145.69;100.00;52775.13;5094158;28;20628;-82
2022/12/05 07:05:19;;;;;;;15.47;6.83;;;;;;;-145.69;100.00;52781.06;5094124;28;20198;-82
2022/12/05 07:07:46;;;;;;;16.83;6.87;;;;;;;-145.69;100.00;52729.56;5093971;28;20199;-83
2022/12/05 07:10:13;;;;;;;16.07;7.37;;;;;;;-145.69;100.00;52749.38;5093583;28;20544;-83
2022/12/05 07:12:39;;;;;;;13.27;6.80;;;;;;;-145.69;100.00;52729.56;5094366;28;20223;-83
2022/12/05 07:15:07;;;;;;;16.13;6.67;;;;;;;-145.69;100.00;52741.47;5093797;28;20194;-83
2022/12/05 07:17:36;;;;;;;15.67;7.00;;;;;;;-145.69;100.00;52717.69;5093829;28;20194;-83
2022/12/05 07:20:03;;;;;;;16.17;6.53;;;;;;;-145.69;100.00;52725.63;5093568;28;20652;-83
2022/12/05 07:22:31;;;;;;;12.70;6.20;;;;;;;-145.69;100.00;52757.31;5093514;28;20320;-82
2022/12/05 07:24:57;;;;;;;9.87;5.30;;;;;;;-145.69;100.00;52769.19;5093326;28;20277;-82
2022/12/05 07:27:24;;;;;;;11.90;5.63;;;;;;;-145.69;100.00;52771.16;5093171;28;20190;-82
2022/12/05 07:29:51;;;;;;;9.20;5.00;;;;;;;-145.69;100.00;52737.50;5092888;28;20198;-82
2022/12/05 07:32:17;;;;;;;9.07;4.97;;;;;;;-145.69;100.00;52745.41;5093360;28;20194;-82
2022/12/05 07:34:44;;;;;;;12.18;6.30;;;;;;;-145.69;100.00;52765.22;5092648;28;20436;-81
2022/12/05 07:37:12;;;;;;;12.57;6.17;;;;;;;-145.69;100.00;52777.09;5093615;28;20194;-82
2022/12/05 07:39:40;;;;;;;11.93;5.47;;;;;;;-145.69;100.00;52755.31;5093423;28;20202;-81
2022/12/05 07:42:07;;;;;;;9.27;5.00;;;;;;;-145.69;100.00;52761.25;5093157;28;20233;-80
2022/12/05 07:44:33;;;;;;;9.13;4.63;;;;;;;-145.69;100.00;52769.19;5093444;28;20186;-81
2022/12/05 07:47:01;;;;;;;11.07;4.77;;;;;;;-145.69;100.00;52769.19;5093991;28;20198;-82
2022/12/05 07:49:27;;;;;;;9.17;4.07;;;;;;;-145.69;100.00;52723.63;5093571;28;20198;-81
2022/12/05 07:51:54;;;;;;;8.83;4.57;;;;;;;-145.69;100.00;52751.34;5094415;28;20233;-81
2022/12/05 07:54:21;;;;;;;8.47;4.30;;;;;;;-145.69;100.00;52745.41;5094313;28;20289;-82
2022/12/05 07:56:48;;;;;;;8.03;4.17;;;;;;;-145.69;100.00;52711.75;5094221;28;20209;-81
2022/12/05 07:59:15;;;;;;;6.23;3.33;;;;;;;-145.69;100.00;52769.19;5094541;28;20194;-81
2022/12/05 08:01:42;;;;;;;5.63;3.07;;;;;;;-145.69;100.00;52743.44;5093824;28;20257;-81
2022/12/05 08:04:08;;;;;;;3.77;2.37;;;;;;;-145.69;100.00;52737.50;5093668;28;20680;-82
2022/12/05 08:06:35;;;;;;;3.07;1.77;;;;;;;-145.69;100.00;52769.19;5092822;28;20209;-82
2022/12/05 08:09:01;;;;;;;3.60;1.83;;;;;;;-145.69;100.00;52757.31;5093031;28;20198;-82
2022/12/05 08:11:31;;;;;;;1.43;1.30;;;;;;;-145.69;100.00;52741.47;5097696;28;20657;-82
2022/12/05 08:13:59;;;;;;;2.30;1.70;;;;;;;-145.69;100.00;52745.41;5098572;28;20205;-82
2022/12/05 08:16:27;;;;;;;1.63;1.40;;;;;;;-145.69;100.00;52753.34;5099341;28;20641;-82
2022/12/05 08:18:54;;;;;;;1.30;1.20;;;;;;;-145.69;100.00;52753.34;5100372;28;20656;-82
2022/12/05 08:21:21;;;;;;;1.47;1.07;;;;;;;-145.69;100.00;52725.63;5098170;28;20232;-82
2022/12/05 08:23:47;;;;;;;1.00;1.00;;;;;;;-145.69;100.00;52769.19;5097369;28;20198;-82
2022/12/05 08:26:16;;;;;;;2.10;1.70;;;;;;;-145.69;100.00;52765.22;5097838;28;20205;-82
2022/12/05 08:28:44;;;;;;;2.80;1.60;;;;;;;-145.69;100.00;52737.50;5097838;28;20206;-82
2022/12/05 08:31:15;;;;;;;1.83;1.60;;;;;;;-145.69;100.00;52743.44;5097479;28;20649;-80
2022/12/05 08:33:42;;;;;;;2.37;1.57;;;;;;;-145.69;100.00;52789.00;5099187;28;20213;-82
2022/12/05 08:36:11;;;;;;;1.40;1.30;;;;;;;-145.69;100.00;52753.34;5099646;28;20233;-82
2022/12/05 08:38:38;;;;;;;2.43;1.50;;;;;;;-145.69;100.00;52755.31;5099088;28;20262;-82
2022/12/05 08:41:06;;;;;;;2.73;1.60;;;;;;;-145.69;100.00;52735.50;5093379;28;20237;-82
2022/12/05 08:43:33;;;;;;;1.43;1.17;;;;;;;-145.69;100.00;52753.34;5078719;28;20214;-82
2022/12/05 08:46:00;;;;;;;4.10;2.40;;;;;;;-145.69;100.00;52735.50;5077342;28;20289;-82
2022/12/05 08:48:31;;;;;;;2.30;1.67;;;;;;;-145.69;100.00;52737.50;5076900;28;20209;-82
2022/12/05 08:50:58;;;;;;;2.07;1.87;;;;;;;-145.69;100.00;52751.34;5076737;28;20203;-82
2022/12/05 08:53:25;;;;;;;1.77;1.37;;;;;;;-145.69;100.00;52713.72;5076678;28;20226;-83
2022/12/05 08:55:52;;;;;;;1.63;1.47;;;;;;;-145.69;100.00;52751.34;5076579;28;20199;-83
2022/12/05 08:58:18;;;;;;;1.80;1.20;;;;;;;-145.69;100.00;52729.56;5077553;28;20199;-83
2022/12/05 09:00:45;;;;;;;1.20;1.10;;;;;;;-145.69;100.00;52725.63;5096002;28;20281;-84
2022/12/05 09:03:12;;;;;;;1.80;1.20;;;;;;;-145.69;100.00;52725.63;5096220;28;20233;-82
2022/12/05 09:05:40;;;;;;;0.80;0.80;;;;;;;-145.69;100.00;52693.94;5096005;28;20573;-83
2022/12/05 09:08:06;;;;;;;1.17;1.00;;;;;;;-145.69;100.00;52761.25;5096290;28;20224;-83
2022/12/05 09:10:33;;;;;;;1.10;1.00;;;;;;;-145.69;100.00;52717.69;5096634;28;20197;-82
2022/12/05 09:13:00;;;;;;;1.10;1.00;;;;;;;-145.69;100.00;52751.34;5096723;28;20670;-83
2022/12/05 09:15:26;;;;;;;1.00;0.90;;;;;;;-145.69;100.00;52733.53;5097087;28;20198;-84
2022/12/05 09:17:53;;;;;;;1.20;1.00;;;;;;;-145.69;100.00;52717.69;5097200;28;20198;-84
2022/12/05 09:20:20;;;;;;;1.80;1.17;;;;;;;-145.69;100.00;52713.72;5096339;28;20208;-83
2022/12/05 09:22:47;;;;;;;1.00;0.90;;;;;;;-145.69;100.00;52745.41;5094951;28;20771;-84
2022/12/05 09:25:14;;;;;;;1.27;1.07;;;;;;;-145.69;100.00;52717.69;5096268;28;20206;-83
2022/12/05 09:27:41;;;;;;;1.27;1.13;;;;;;;-145.69;100.00;52725.63;5096651;28;20649;-82
2022/12/05 09:30:08;;;;;;;1.10;1.00;;;;;;;-145.69;100.00;52709.78;5097277;28;20198;-82
2022/12/05 09:32:35;;;;;;;1.03;0.93;;;;;;;-145.69;100.00;52715.72;5096462;28;20201;-81
2022/12/05 09:35:02;;;;;;;2.03;1.30;;;;;;;-145.69;100.00;52729.56;5097319;28;20222;-83
2022/12/05 09:37:28;;;;;;;2.87;1.77;;;;;;;-145.69;100.00;52719.66;5098364;28;20694;-82
2022/12/05 09:39:56;;;;;;;2.93;1.70;;;;;;;-145.69;100.00;52725.63;5098612;28;20226;-82
2022/12/05 09:42:38;;;;;;;2.77;1.90;;;;;;;-145.69;100.00;52711.75;5098548;28;20316;-82
2022/12/05 09:45:21;;;;;;;3.27;1.97;;;;;;;-145.69;100.00;52755.31;5097923;28;20281;-82
2022/12/05 09:47:56;;;;;;;3.67;2.10;;;;;;;-145.69;100.00;52697.88;5098005;28;20591;-82
2022/12/05 09:50:27;;;;;;;3.10;1.93;;;;;;;-145.69;100.00;52709.78;5097672;28;20560;-82
2022/12/05 09:53:06;;;;;;;4.23;2.13;;;;;;;-145.69;100.00;52757.31;5097443;28;20241;-79
2022/12/05 09:55:45;;;;;;;4.57;2.47;;;;;;;-145.69;100.00;52682.03;5096205;28;20561;-81
2022/12/05 09:58:22;;;;;;;5.13;3.07;;;;;;;-145.69;100.00;52721.66;5094514;28;20234;-83
2022/12/05 10:00:54;;;;;;;3.47;2.37;;;;;;;-145.69;100.00;52699.88;5094918;28;20216;-82
2022/12/05 10:03:29;;;;;;;7.90;3.70;;;;;;;-145.69;100.00;52703.81;5095238;28;20218;-85
2022/12/05 10:06:08;;;;;;;3.73;2.60;;;;;;;-145.69;100.00;52721.66;5094865;28;20668;-80
2022/12/05 10:08:44;;;;;;;5.07;3.42;;;;;;;-145.69;100.00;52741.47;5094796;28;20440;-80
2022/12/05 10:11:19;;;;;;;4.93;2.97;;;;;;;-145.69;100.00;52717.69;5096149;28;20654;-81
2022/12/05 10:13:53;;;;;;;4.60;3.30;;;;;;;-145.69;100.00;52701.84;5097058;28;20572;-82
2022/12/05 10:16:27;;;;;;;5.57;3.37;;;;;;;-145.69;100.00;52678.09;5096837;28;20598;-79
2022/12/05 10:18:58;;;;;;;7.87;4.20;;;;;;;-145.69;100.00;52741.47;5096510;28;20216;-82
2022/12/05 10:21:31;;;;;;;6.77;3.30;;;;;;;-145.69;100.00;52717.69;5097272;28;20228;-81
2022/12/05 10:24:00;;;;;;;6.50;3.70;;;;;;;-145.69;100.00;52767.19;5100482;28;20222;-81
2022/12/05 10:26:32;;;;;;;8.33;4.30;;;;;;;-145.69;100.00;52705.81;5099595;28;20569;-82
2022/12/05 10:29:08;;;;;;;6.10;2.70;;;;;;;-145.69;100.00;52684.03;5100704;28;20310;-82
2022/12/05 10:31:38;;;;;;;5.13;3.07;;;;;;;-145.69;100.00;52733.53;5099552;28;20193;-81
2022/12/05 10:34:13;;;;;;;5.40;3.20;;;;;;;-145.69;100.00;52727.59;5099673;28;20201;-81
2022/12/05 10:36:57;;;;;;;6.07;3.10;;;;;;;-145.69;100.00;52739.47;5101523;28;20194;-81
2022/12/05 10:39:24;;;;;;;5.53;3.10;;;;;;;-145.69;100.00;52745.41;5097313;28;20196;-82
2022/12/05 10:41:52;;;;;;;4.27;2.93;;;;;;;-145.69;100.00;52739.47;5080912;28;20226;-81
2022/12/05 10:44:18;;;;;;;6.13;3.37;;;;;;;-145.69;100.00;52729.56;5080025;28;20202;-81
2022/12/05 10:46:45;;;;;;;5.33;3.13;;;;;;;-145.69;100.00;52725.63;5078150;28;20202;-81
2022/12/05 10:49:12;;;;;;;4.53;2.97;;;;;;;-145.69;100.00;52751.34;5088519;28;20194;-81
2022/12/05 10:51:39;;;;;;;6.00;3.13;;;;;;;-145.69;100.00;52701.84;5096650;28;20258;-80
2022/12/05 10:54:16;;;;;;;4.93;2.90;;;;;;;-145.69;100.00;52713.72;5096845;28;20242;-81
2022/12/05 10:56:45;;;;;;;5.40;2.90;;;;;;;-145.69;100.00;52729.56;5097503;28;20212;-82
2022/12/05 10:59:14;;;;;;;3.47;2.47;;;;;;;-145.69;100.00;52721.66;5096926;28;20216;-83
2022/12/05 11:01:46;;;;;;;4.13;2.80;;;;;;;-145.69;100.00;52709.78;5094227;28;20641;-82
2022/12/05 11:04:21;;;;;;;2.77;1.97;;;;;;;-145.69;100.00;52713.72;5094717;28;20190;-82
2022/12/05 11:06:57;;;;;;;4.70;2.60;;;;;;;-145.69;100.00;52703.81;5095772;28;20774;-82
2022/12/05 11:09:27;;;;;;;5.17;2.50;;;;;;;-145.69;100.00;52697.88;5094118;28;20594;-82
2022/12/05 11:12:21;;;;;;;3.37;2.30;;;;;;;-145.69;100.00;52709.78;5094329;28;20206;-82
2022/12/05 11:15:01;;;;;;;3.17;2.17;;;;;;;-145.69;100.00;52697.88;5058596;28;20229;-81
2022/12/05 11:17:32;;;;;;;3.60;2.50;;;;;;;-145.69;100.00;52693.94;5094432;28;20648;-83
2022/12/05 11:19:58;;;;;;;4.43;2.63;;;;;;;-145.69;100.00;52689.97;5094280;28;20197;-82
2022/12/05 11:22:33;;;;;;;5.37;3.07;;;;;;;-145.69;100.00;52729.56;5093630;28;20222;-82